createdAt,value
2019-06-15T00:00:31.541Z,98203.34
2019-06-15T00:03:01.388Z,98186.73
2019-06-15T00:05:30.888Z,98176.27
2019-06-15T00:08:00.415Z,98166.40
2019-06-15T00:10:29.919Z,98158.14
2019-06-15T00:12:59.478Z,98165.75
2019-06-15T00:15:28.960Z,98163.76
2019-06-15T00:18:00.145Z,98163.76
2019-06-15T00:20:29.645Z,98156.19
2019-06-15T00:22:59.178Z,98143.95
2019-06-15T00:25:28.685Z,98144.31
2019-06-15T00:28:00.198Z,98142.64
2019-06-15T00:30:29.454Z,98136.95
2019-06-15T00:32:58.979Z,98133.27
2019-06-15T00:35:28.819Z,98122.23
2019-06-15T00:37:59.610Z,98119.37
2019-06-15T00:40:29.151Z,98114.89
2019-06-15T00:42:58.682Z,98108.80
2019-06-15T00:45:28.192Z,98108.59
2019-06-15T00:47:57.721Z,98108.55
2019-06-15T00:50:27.295Z,98106.95
2019-06-15T00:52:56.821Z,98095.77
2019-06-15T00:55:26.345Z,98094.03
2019-06-15T00:57:55.946Z,98086.47
2019-06-15T01:00:25.461Z,98076.38
2019-06-15T01:02:54.991Z,98072.12
2019-06-15T01:05:24.636Z,98064.70
2019-06-15T01:07:54.163Z,98065.17
2019-06-15T01:10:23.807Z,98052.09
2019-06-15T01:12:53.332Z,98063.05
2019-06-15T01:15:23.075Z,98050.45
2019-06-15T01:17:52.604Z,98056.61
2019-06-15T01:20:22.450Z,98061.20
2019-06-15T01:22:52.048Z,98062.66
2019-06-15T01:25:21.767Z,98053.99
2019-06-15T01:27:51.361Z,98071.95
2019-06-15T01:30:21.311Z,98062.31
2019-06-15T01:32:50.840Z,98049.10
2019-06-15T01:35:20.495Z,98049.10
2019-06-15T01:37:50.016Z,98042.84
2019-06-15T01:40:19.863Z,98052.16
2019-06-15T01:42:49.479Z,98054.01
2019-06-15T01:45:25.928Z,98046.41
2019-06-15T01:47:56.177Z,98043.97
2019-06-15T01:50:25.818Z,98042.02
2019-06-15T01:52:55.413Z,98039.92
2019-06-15T01:55:24.921Z,98037.73
2019-06-15T01:57:54.453Z,98040.62
2019-06-15T02:00:29.743Z,98049.69
2019-06-15T02:02:59.481Z,98051.89
2019-06-15T02:05:29.125Z,98055.83
2019-06-15T02:08:00.317Z,98054.54
2019-06-15T02:10:32.786Z,98054.92
2019-06-15T02:13:03.257Z,98060.86
2019-06-15T02:15:32.788Z,98054.30
2019-06-15T02:18:02.665Z,98054.59
2019-06-15T02:20:32.177Z,98054.12
2019-06-15T02:23:01.703Z,98051.11
2019-06-15T02:25:36.202Z,98050.75
2019-06-15T02:28:03.469Z,98056.84
2019-06-15T02:30:34.442Z,98060.30
2019-06-15T02:33:04.402Z,98065.13
2019-06-15T02:35:34.311Z,98071.59
2019-06-15T02:38:03.982Z,98079.77
2019-06-15T02:40:33.488Z,98094.04
2019-06-15T02:43:03.074Z,98098.30
2019-06-15T02:45:32.592Z,98101.28
2019-06-15T02:48:02.165Z,98112.70
2019-06-15T02:50:33.094Z,98110.48
2019-06-15T02:53:02.603Z,98121.48
2019-06-15T02:55:32.199Z,98125.95
2019-06-15T02:58:01.727Z,98133.61
2019-06-15T03:00:38.907Z,98137.52
2019-06-15T03:03:08.426Z,98145.27
2019-06-15T03:05:38.919Z,98159.66
2019-06-15T03:08:08.498Z,98161.23
2019-06-15T03:10:38.166Z,98171.24
2019-06-15T03:13:08.035Z,98186.06
2019-06-15T03:15:37.855Z,98191.93
2019-06-15T03:18:07.354Z,98206.31
2019-06-15T03:20:36.900Z,98226.05
2019-06-15T03:23:06.462Z,98231.45
2019-06-15T03:25:35.993Z,98247.80
2019-06-15T03:28:05.639Z,98259.88
2019-06-15T03:30:35.163Z,98276.91
2019-06-15T03:33:04.738Z,98283.75
2019-06-15T03:35:34.265Z,98295.95
2019-06-15T03:38:04.206Z,98305.28
2019-06-15T03:40:33.736Z,98309.55
2019-06-15T03:43:03.311Z,98309.00
2019-06-15T03:45:32.850Z,98311.89
2019-06-15T03:48:02.340Z,98318.61
2019-06-15T03:50:31.876Z,98332.19
2019-06-15T03:53:01.439Z,98341.00
2019-06-15T03:55:30.989Z,98349.00
2019-06-15T03:58:00.508Z,98367.11
2019-06-15T04:00:46.487Z,98385.37
2019-06-15T04:03:16.402Z,98402.83
2019-06-15T04:05:46.291Z,98423.58
2019-06-15T04:08:15.796Z,98433.03
2019-06-15T04:10:45.326Z,98432.14
2019-06-15T04:13:14.831Z,98431.59
2019-06-15T04:15:44.361Z,98430.69
2019-06-15T04:18:13.870Z,98434.95
2019-06-15T04:20:43.394Z,98429.56
2019-06-15T04:23:12.901Z,98429.58
2019-06-15T04:25:44.350Z,98437.11
2019-06-15T04:28:13.670Z,98446.14
2019-06-15T04:30:43.965Z,98438.37
2019-06-15T04:33:13.471Z,98443.95
2019-06-15T04:35:42.999Z,98452.79
2019-06-15T04:38:12.510Z,98451.91
2019-06-15T04:40:42.043Z,98465.77
2019-06-15T04:43:11.691Z,98467.64
2019-06-15T04:45:41.321Z,98480.56
2019-06-15T04:48:10.880Z,98479.31
2019-06-15T04:50:40.867Z,98484.17
2019-06-15T04:53:10.577Z,98483.75
2019-06-15T04:55:40.086Z,98489.89
2019-06-15T04:58:09.969Z,98491.90
2019-06-15T05:00:39.518Z,98494.44
2019-06-15T05:03:09.031Z,98495.23
2019-06-15T05:05:38.981Z,98502.53
2019-06-15T05:08:08.600Z,98508.52
2019-06-15T05:10:38.115Z,98504.22
2019-06-15T05:13:07.633Z,98521.59
2019-06-15T05:15:38.313Z,98528.71
2019-06-15T05:18:07.879Z,98530.97
2019-06-15T05:20:37.503Z,98533.73
2019-06-15T05:23:07.073Z,98524.41
2019-06-15T05:25:36.601Z,98534.99
2019-06-15T05:28:06.284Z,98533.88
2019-06-15T05:30:35.893Z,98533.55
2019-06-15T05:33:05.819Z,98546.11
2019-06-15T05:35:35.344Z,98557.87
2019-06-15T05:38:04.915Z,98551.27
2019-06-15T05:40:34.447Z,98557.16
2019-06-15T05:43:04.030Z,98561.20
2019-06-15T05:45:33.557Z,98564.98
2019-06-15T05:48:03.065Z,98568.59
2019-06-15T05:50:32.587Z,98569.18
2019-06-15T05:53:21.435Z,98573.88
2019-06-15T05:55:50.970Z,98574.84
2019-06-15T05:58:20.470Z,98578.84
2019-06-15T06:00:50.005Z,98579.54
2019-06-15T06:03:19.511Z,98574.42
2019-06-15T06:05:49.401Z,98575.27
2019-06-15T06:08:19.015Z,98573.05
2019-06-15T06:10:48.625Z,98565.45
2019-06-15T06:13:18.204Z,98567.45
2019-06-15T06:15:47.736Z,98571.67
2019-06-15T06:18:17.278Z,98575.13
2019-06-15T06:20:46.922Z,98584.45
2019-06-15T06:23:16.430Z,98589.28
2019-06-15T06:25:45.962Z,98596.22
2019-06-15T06:28:15.461Z,98595.17
2019-06-15T06:30:44.995Z,98594.68
2019-06-15T06:33:14.536Z,98597.06
2019-06-15T06:35:44.069Z,98604.39
2019-06-15T06:38:13.579Z,98602.31
2019-06-15T06:40:43.086Z,98606.37
2019-06-15T06:43:12.616Z,98608.27
2019-06-15T06:45:42.121Z,98603.37
2019-06-15T06:48:12.007Z,98602.42
2019-06-15T06:50:41.510Z,98607.79
2019-06-15T06:53:11.430Z,98617.39
2019-06-15T06:55:41.006Z,98628.81
2019-06-15T06:58:10.534Z,98637.19
2019-06-15T07:00:40.602Z,98640.77
2019-06-15T07:03:10.133Z,98644.01
2019-06-15T07:05:39.636Z,98643.13
2019-06-15T07:08:09.171Z,98642.55
2019-06-15T07:10:38.701Z,98644.99
2019-06-15T07:13:08.290Z,98645.69
2019-06-15T07:15:37.797Z,98648.66
2019-06-15T07:18:07.345Z,98651.55
2019-06-15T07:20:36.834Z,98648.97
2019-06-15T07:23:06.364Z,98656.35
2019-06-15T07:25:35.884Z,98665.70
2019-06-15T07:28:08.301Z,98672.87
2019-06-15T07:30:36.659Z,98668.01
2019-06-15T07:33:06.181Z,98672.57
2019-06-15T07:35:35.686Z,98677.06
2019-06-15T07:38:05.222Z,98673.94
2019-06-15T07:40:34.732Z,98679.09
2019-06-15T07:43:04.381Z,98673.90
2019-06-15T07:45:34.332Z,98665.85
2019-06-15T07:48:03.890Z,98672.50
2019-06-15T07:50:33.472Z,98671.56
2019-06-15T07:53:03.013Z,98678.60
2019-06-15T07:55:32.525Z,98678.48
2019-06-15T07:58:02.048Z,98687.45
2019-06-15T08:00:31.553Z,98690.39
2019-06-15T08:03:01.081Z,98700.30
2019-06-15T08:05:30.584Z,98699.60
2019-06-15T08:08:00.117Z,98695.83
2019-06-15T08:10:29.951Z,98695.98
2019-06-15T08:12:59.484Z,98703.48
2019-06-15T08:15:29.001Z,98702.27
2019-06-15T08:17:58.528Z,98706.66
2019-06-15T08:20:34.093Z,98702.95
2019-06-15T08:23:03.625Z,98700.93
2019-06-15T08:25:33.201Z,98698.36
2019-06-15T08:28:03.002Z,98704.41
2019-06-15T08:30:45.747Z,98720.44
2019-06-15T08:33:15.275Z,98728.37
2019-06-15T08:35:44.782Z,98733.40
2019-06-15T08:38:14.314Z,98735.11
2019-06-15T08:40:43.826Z,98734.58
2019-06-15T08:43:13.622Z,98738.38
2019-06-15T08:45:43.124Z,98749.36
2019-06-15T08:48:12.654Z,98749.78
2019-06-15T08:50:42.493Z,98756.34
2019-06-15T08:53:12.092Z,98756.61
2019-06-15T08:55:42.219Z,98761.30
2019-06-15T08:58:11.752Z,98757.49
2019-06-15T09:00:41.337Z,98762.62
2019-06-15T09:03:11.138Z,98762.54
2019-06-15T09:05:40.647Z,98760.97
2019-06-15T09:08:10.182Z,98754.66
2019-06-15T09:10:39.757Z,98749.86
2019-06-15T09:13:09.264Z,98751.66
2019-06-15T09:15:55.858Z,98750.00
2019-06-15T09:18:25.467Z,98762.19
2019-06-15T09:20:55.281Z,98755.56
2019-06-15T09:23:24.818Z,98757.23
2019-06-15T09:25:54.384Z,98756.05
2019-06-15T09:28:23.891Z,98750.97
2019-06-15T09:30:53.423Z,98752.03
2019-06-15T09:33:22.928Z,98754.19
2019-06-15T09:35:52.462Z,98747.39
2019-06-15T09:38:21.970Z,98757.31
2019-06-15T09:40:51.500Z,98760.20
2019-06-15T09:43:21.134Z,98759.88
2019-06-15T09:45:51.527Z,98770.38
2019-06-15T09:48:21.245Z,98761.63
2019-06-15T09:50:50.896Z,98763.84
2019-06-15T09:53:20.667Z,98757.98
2019-06-15T09:55:50.288Z,98766.80
2019-06-15T09:58:19.906Z,98762.52
2019-06-15T10:00:49.723Z,98767.12
2019-06-15T10:03:19.263Z,98757.72
2019-06-15T10:05:48.848Z,98776.56
2019-06-15T10:08:18.355Z,98772.17
2019-06-15T10:10:48.234Z,98773.12
2019-06-15T10:13:17.742Z,98773.02
2019-06-15T10:15:47.545Z,98780.39
2019-06-15T10:18:17.365Z,98773.98
2019-06-15T10:20:46.966Z,98782.27
2019-06-15T10:23:16.477Z,98785.12
2019-06-15T10:25:46.007Z,98793.08
2019-06-15T10:28:15.586Z,98789.23
2019-06-15T10:30:45.261Z,98787.76
2019-06-15T10:33:14.775Z,98793.05
2019-06-15T10:35:44.609Z,98793.05
2019-06-15T10:38:14.116Z,98790.36
2019-06-15T10:40:43.657Z,98793.20
2019-06-15T10:43:13.531Z,98793.36
2019-06-15T10:45:43.064Z,98793.84
2019-06-15T10:48:12.570Z,98797.61
2019-06-15T10:50:42.109Z,98792.72
2019-06-15T10:53:11.968Z,98798.93
2019-06-15T10:55:41.667Z,98800.01
2019-06-15T10:58:11.177Z,98800.12
2019-06-15T11:00:41.087Z,98797.13
2019-06-15T11:03:11.228Z,98796.96
2019-06-15T11:05:40.762Z,98808.17
2019-06-15T11:08:10.268Z,98796.45
2019-06-15T11:10:50.809Z,98804.66
2019-06-15T11:13:20.385Z,98801.69
2019-06-15T11:15:50.485Z,98808.17
2019-06-15T11:18:20.065Z,98813.46
2019-06-15T11:20:49.591Z,98801.66
2019-06-15T11:23:19.246Z,98806.94
2019-06-15T11:25:49.136Z,98808.97
2019-06-15T11:28:18.718Z,98805.48
2019-06-15T11:30:48.251Z,98809.13
2019-06-15T11:33:17.830Z,98807.11
2019-06-15T11:35:47.709Z,98812.23
2019-06-15T11:38:17.480Z,98815.06
2019-06-15T11:40:47.008Z,98814.84
2019-06-15T11:43:16.516Z,98813.29
2019-06-15T11:45:46.861Z,98811.09
2019-06-15T11:48:16.385Z,98823.95
2019-06-15T11:50:46.046Z,98810.53
2019-06-15T11:53:15.556Z,98817.42
2019-06-15T11:55:45.090Z,98816.17
2019-06-15T11:58:14.943Z,98814.41
2019-06-15T12:00:45.273Z,98819.58
2019-06-15T12:03:14.791Z,98823.86
2019-06-15T12:05:44.312Z,98829.70
2019-06-15T12:08:13.905Z,98827.87
2019-06-15T12:10:43.565Z,98823.11
2019-06-15T12:13:13.072Z,98819.25
2019-06-15T12:15:43.465Z,98815.09
2019-06-15T12:18:12.970Z,98822.81
2019-06-15T12:20:42.483Z,98822.70
2019-06-15T12:23:12.010Z,98821.52
2019-06-15T12:25:41.517Z,98828.54
2019-06-15T12:28:11.125Z,98814.72
2019-06-15T12:30:49.094Z,98804.66
2019-06-15T12:33:13.851Z,98820.86
2019-06-15T12:35:43.358Z,98818.97
2019-06-15T12:38:12.891Z,98824.41
2019-06-15T12:40:42.401Z,98813.79
2019-06-15T12:43:12.001Z,98819.80
2019-06-15T12:45:42.147Z,98813.95
2019-06-15T12:48:11.703Z,98815.06
2019-06-15T12:50:41.277Z,98808.20
2019-06-15T12:53:10.932Z,98809.95
2019-06-15T12:55:40.482Z,98804.11
2019-06-15T12:58:10.008Z,98815.63
2019-06-15T13:00:39.931Z,98805.92
2019-06-15T13:03:09.466Z,98799.35
2019-06-15T13:05:38.968Z,98800.36
2019-06-15T13:08:08.638Z,98802.05
2019-06-15T13:10:38.802Z,98803.22
2019-06-15T13:13:08.625Z,98812.35
2019-06-15T13:15:38.235Z,98804.86
2019-06-15T13:18:07.999Z,98811.94
2019-06-15T13:20:37.535Z,98811.14
2019-06-15T13:23:07.050Z,98816.66
2019-06-15T13:25:36.560Z,98801.14
2019-06-15T13:28:06.094Z,98800.67
2019-06-15T13:30:35.668Z,98807.39
2019-06-15T13:33:05.307Z,98803.06
2019-06-15T13:35:34.953Z,98805.16
2019-06-15T13:38:04.485Z,98793.67
2019-06-15T13:40:34.063Z,98796.27
2019-06-15T13:43:03.952Z,98807.08
2019-06-15T13:45:33.462Z,98800.11
2019-06-15T13:48:02.996Z,98806.08
2019-06-15T13:50:32.555Z,98808.55
2019-06-15T13:53:02.080Z,98816.35
2019-06-15T13:55:31.586Z,98801.84
2019-06-15T13:58:01.116Z,98805.05
2019-06-15T14:00:30.648Z,98803.47
2019-06-15T14:03:00.162Z,98804.48
2019-06-15T14:05:29.674Z,98802.47
2019-06-15T14:08:00.473Z,98802.50
2019-06-15T14:10:29.991Z,98798.82
2019-06-15T14:12:59.528Z,98803.16
2019-06-15T14:15:29.037Z,98800.15
2019-06-15T14:17:58.633Z,98802.83
2019-06-15T14:20:28.143Z,98806.47
2019-06-15T14:22:57.700Z,98799.03
2019-06-15T14:25:27.177Z,98804.17
2019-06-15T14:27:56.704Z,98807.62
2019-06-15T14:30:26.360Z,98799.02
2019-06-15T14:32:55.986Z,98811.77
2019-06-15T14:35:25.493Z,98811.61
2019-06-15T14:37:55.308Z,98810.27
2019-06-15T14:40:24.816Z,98807.81
2019-06-15T14:42:54.347Z,98819.21
2019-06-15T14:45:23.984Z,98817.91
2019-06-15T14:47:53.514Z,98817.20
2019-06-15T14:50:23.339Z,98814.26
2019-06-15T14:52:52.875Z,98816.23
2019-06-15T14:55:22.452Z,98813.11
2019-06-15T14:57:52.361Z,98804.96
2019-06-15T15:00:22.007Z,98807.42
2019-06-15T15:02:51.988Z,98806.13
2019-06-15T15:05:21.561Z,98806.75
2019-06-15T15:07:51.100Z,98792.55
2019-06-15T15:10:20.671Z,98791.84
2019-06-15T15:12:50.177Z,98782.23
2019-06-15T15:15:19.783Z,98785.89
2019-06-15T15:17:49.287Z,98790.52
2019-06-15T15:20:19.663Z,98785.55
2019-06-15T15:22:49.163Z,98788.85
2019-06-15T15:25:19.329Z,98788.80
2019-06-15T15:27:48.851Z,98796.70
2019-06-15T15:30:40.411Z,98788.76
2019-06-15T15:33:10.356Z,98790.09
2019-06-15T15:35:40.238Z,98792.98
2019-06-15T15:38:09.825Z,98790.12
2019-06-15T15:40:39.338Z,98786.29
2019-06-15T15:43:08.844Z,98795.38
2019-06-15T15:45:38.369Z,98787.92
2019-06-15T15:48:08.252Z,98777.81
2019-06-15T15:50:37.790Z,98787.11
2019-06-15T15:53:07.436Z,98783.50
2019-06-15T15:55:37.287Z,98784.00
2019-06-15T15:58:06.946Z,98780.83
2019-06-15T16:00:37.721Z,98783.80
2019-06-15T16:03:07.409Z,98788.09
2019-06-15T16:05:37.373Z,98798.64
2019-06-15T16:08:07.064Z,98800.82
2019-06-15T16:10:37.376Z,98800.82
2019-06-15T16:13:07.149Z,98799.66
2019-06-15T16:15:37.463Z,98797.31
2019-06-15T16:18:07.207Z,98798.94
2019-06-15T16:20:37.176Z,98795.53
2019-06-15T16:23:07.416Z,98791.70
2019-06-15T16:25:37.633Z,98796.97
2019-06-15T16:28:07.541Z,98794.70
2019-06-15T16:31:00.545Z,98791.14
2019-06-15T16:33:08.811Z,98786.98
2019-06-15T16:35:38.412Z,98784.47
2019-06-15T16:38:07.990Z,98783.13
2019-06-15T16:40:41.189Z,98786.45
2019-06-15T16:43:11.065Z,98785.95
2019-06-15T16:45:41.088Z,98795.89
2019-06-15T16:48:10.593Z,98792.11
2019-06-15T16:50:40.128Z,98791.30
2019-06-15T16:53:09.707Z,98787.25
2019-06-15T16:55:39.238Z,98789.54
2019-06-15T16:58:08.749Z,98787.86
2019-06-15T17:00:38.348Z,98781.45
2019-06-15T17:03:21.066Z,98786.86
2019-06-15T17:05:39.256Z,98786.86
2019-06-15T17:08:08.836Z,98785.86
2019-06-15T17:10:42.468Z,98788.19
2019-06-15T17:13:12.129Z,98790.51
2019-06-15T17:15:42.097Z,98799.08
2019-06-15T17:18:11.682Z,98797.41
2019-06-15T17:20:52.934Z,98795.47
2019-06-15T17:23:22.510Z,98799.08
2019-06-15T17:25:52.183Z,98806.00
2019-06-15T17:28:21.693Z,98801.69
2019-06-15T17:30:51.231Z,98796.41
2019-06-15T17:33:33.186Z,98791.63
2019-06-15T17:35:59.038Z,98790.44
2019-06-15T17:38:24.078Z,98782.70
2019-06-15T17:40:53.612Z,98777.94
2019-06-15T17:43:23.651Z,98784.19
2019-06-15T17:45:53.188Z,98787.83
2019-06-15T17:48:22.697Z,98786.31
2019-06-15T17:50:52.221Z,98781.55
2019-06-15T17:53:21.750Z,98778.91
2019-06-15T17:55:51.341Z,98780.22
2019-06-15T17:58:21.224Z,98776.23
2019-06-15T18:00:51.053Z,98780.83
2019-06-15T18:03:20.672Z,98778.03
2019-06-15T18:05:50.385Z,98770.27
2019-06-15T18:08:19.906Z,98767.42
2019-06-15T18:10:49.504Z,98770.55
2019-06-15T18:13:19.101Z,98777.47
2019-06-15T18:15:48.693Z,98767.55
2019-06-15T18:18:18.233Z,98765.91
2019-06-15T18:20:47.763Z,98765.23
2019-06-15T18:23:17.810Z,98764.91
2019-06-15T18:25:47.400Z,98752.47
2019-06-15T18:28:17.905Z,98756.91
2019-06-15T18:30:48.156Z,98748.63
2019-06-15T18:33:19.250Z,98756.36
2019-06-15T18:35:48.886Z,98758.48
2019-06-15T18:38:18.502Z,98753.03
2019-06-15T18:40:48.082Z,98749.87
2019-06-15T18:43:17.679Z,98763.07
2019-06-15T18:45:47.580Z,98768.83
2019-06-15T18:48:17.342Z,98770.75
2019-06-15T18:50:46.899Z,98772.38
2019-06-15T18:53:16.432Z,98764.62
2019-06-15T18:55:47.272Z,98762.77
2019-06-15T18:58:17.698Z,98762.41
2019-06-15T19:00:47.413Z,98769.27
2019-06-15T19:03:17.126Z,98765.91
2019-06-15T19:05:47.630Z,98771.97
2019-06-15T19:08:17.600Z,98769.21
2019-06-15T19:10:47.251Z,98756.14
2019-06-15T19:13:16.787Z,98748.00
2019-06-15T19:15:47.530Z,98749.39
2019-06-15T19:18:17.971Z,98742.44
2019-06-15T19:20:47.610Z,98750.66
2019-06-15T19:23:17.138Z,98752.23
2019-06-15T19:25:47.108Z,98749.20
2019-06-15T19:28:17.094Z,98750.78
2019-06-15T19:30:47.188Z,98749.26
2019-06-15T19:33:17.194Z,98754.36
2019-06-15T19:35:46.798Z,98757.33
2019-06-15T19:38:16.544Z,98763.38
2019-06-15T19:40:46.526Z,98768.91
2019-06-15T19:43:16.461Z,98768.34
2019-06-15T19:45:46.448Z,98768.67
2019-06-15T19:48:17.101Z,98769.60
2019-06-15T19:50:47.035Z,98772.18
2019-06-15T19:53:17.210Z,98767.90
2019-06-15T19:55:47.128Z,98783.17
2019-06-15T19:58:16.817Z,98783.56
2019-06-15T20:00:47.038Z,98791.77
2019-06-15T20:03:17.075Z,98798.63
2019-06-15T20:05:46.849Z,98799.58
2019-06-15T20:08:17.737Z,98806.73
2019-06-15T20:10:47.671Z,98805.77
2019-06-15T20:13:17.329Z,98802.59
2019-06-15T20:15:47.265Z,98801.64
2019-06-15T20:18:17.723Z,98800.41
2019-06-15T20:20:47.602Z,98799.64
2019-06-15T20:23:17.212Z,98803.12
2019-06-15T20:25:47.206Z,98798.44
2019-06-15T20:28:16.813Z,98802.87
2019-06-15T20:30:47.832Z,98814.32
2019-06-15T20:33:17.360Z,98841.57
2019-06-15T20:35:47.614Z,98854.30
2019-06-15T20:38:17.213Z,98857.84
2019-06-15T20:40:47.958Z,98858.47
2019-06-15T20:43:17.558Z,98858.06
2019-06-15T20:45:48.377Z,98863.63
2019-06-15T20:48:17.970Z,98865.08
2019-06-15T20:50:47.522Z,98878.25
2019-06-15T20:53:17.333Z,98895.50
2019-06-15T20:55:47.006Z,98899.23
2019-06-15T20:58:17.146Z,98907.83
2019-06-15T21:00:47.776Z,98911.78
2019-06-15T21:03:17.554Z,98916.06
2019-06-15T21:05:47.806Z,98925.92
2019-06-15T21:08:17.506Z,98941.58
2019-06-15T21:10:47.086Z,98956.73
2019-06-15T21:13:17.174Z,98970.95
2019-06-15T21:15:48.138Z,98981.88
2019-06-15T21:18:17.734Z,98985.16
2019-06-15T21:20:47.379Z,98991.02
2019-06-15T21:23:17.487Z,98986.68
2019-06-15T21:25:47.048Z,98985.08
2019-06-15T21:28:17.204Z,98995.80
2019-06-15T21:30:47.580Z,98997.63
2019-06-15T21:33:17.105Z,98993.31
2019-06-15T21:35:52.161Z,98999.56
2019-06-15T21:38:17.982Z,98999.20
2019-06-15T21:40:47.842Z,99010.00
2019-06-15T21:43:17.462Z,99013.53
2019-06-15T21:45:46.997Z,99016.53
2019-06-15T21:48:16.512Z,99026.36
2019-06-15T21:50:47.225Z,99034.59
2019-06-15T21:53:17.118Z,99050.19
2019-06-15T21:55:47.345Z,99064.53
2019-06-15T21:58:17.042Z,99080.13
2019-06-15T22:00:57.106Z,99090.70
2019-06-15T22:03:26.978Z,99101.94
2019-06-15T22:06:02.971Z,99096.46
2019-06-15T22:08:27.744Z,99099.70
2019-06-15T22:10:57.322Z,99108.20
2019-06-15T22:13:26.859Z,99110.64
2019-06-15T22:15:56.386Z,99121.99
2019-06-15T22:18:27.281Z,99119.50
2019-06-15T22:20:57.487Z,99111.62
2019-06-15T22:23:27.126Z,99114.12
2019-06-15T22:25:57.154Z,99115.66
2019-06-15T22:28:27.157Z,99119.47
2019-06-15T22:30:57.207Z,99125.00
2019-06-15T22:33:27.126Z,99127.62
2019-06-15T22:35:56.714Z,99131.31
2019-06-15T22:38:26.289Z,99143.34
2019-06-15T22:40:56.377Z,99145.13
2019-06-15T22:43:27.274Z,99143.72
2019-06-15T22:45:57.455Z,99134.88
2019-06-15T22:48:27.248Z,99128.80
2019-06-15T22:50:56.878Z,99126.98
2019-06-15T22:53:27.282Z,99123.77
2019-06-15T22:55:57.093Z,99120.68
2019-06-15T22:58:27.128Z,99119.50
2019-06-15T23:00:57.143Z,99097.90
2019-06-15T23:03:26.660Z,99082.70
2019-06-15T23:05:57.113Z,99072.66
2019-06-15T23:08:27.193Z,99079.13
2019-06-15T23:10:57.113Z,99090.61
2019-06-15T23:13:27.074Z,99109.92
2019-06-15T23:15:56.616Z,99122.47
2019-06-15T23:18:26.184Z,99126.52
2019-06-15T23:20:56.922Z,99124.64
2019-06-15T23:23:26.694Z,99134.16
2019-06-15T23:25:56.779Z,99137.64
2019-06-15T23:28:27.025Z,99132.72
2019-06-15T23:30:56.885Z,99131.41
2019-06-15T23:33:26.653Z,99138.56
2019-06-15T23:36:06.187Z,99143.84
2019-06-15T23:38:37.619Z,99144.77
2019-06-15T23:41:06.929Z,99153.24
2019-06-15T23:43:36.649Z,99148.16
2019-06-15T23:46:06.684Z,99150.66
2019-06-15T23:48:36.625Z,99149.47
2019-06-15T23:51:06.395Z,99149.08
2019-06-15T23:53:36.732Z,99144.20
2019-06-15T23:56:06.733Z,99156.23
2019-06-15T23:58:37.139Z,99157.05
